createdAt,value
2023-07-06T00:01:51.166Z,95.00
2023-07-06T00:04:21.017Z,95.60
2023-07-06T00:06:50.144Z,94.90
2023-07-06T00:09:20.194Z,94.80
2023-07-06T00:11:50.046Z,94.70
2023-07-06T00:14:19.127Z,94.70
2023-07-06T00:16:53.971Z,94.60
2023-07-06T00:19:23.059Z,94.40
2023-07-06T00:21:52.966Z,94.20
2023-07-06T00:24:21.933Z,94.10
2023-07-06T00:26:50.954Z,93.90
2023-07-06T00:29:20.079Z,94.00
2023-07-06T00:32:06.193Z,93.90
2023-07-06T00:34:36.594Z,93.70
2023-07-06T00:37:05.746Z,93.50
2023-07-06T00:39:34.778Z,93.20
2023-07-06T00:42:05.675Z,93.10
2023-07-06T00:44:55.423Z,93.00
2023-07-06T00:47:50.857Z,93.30
2023-07-06T00:50:23.286Z,92.90
2023-07-06T00:53:01.023Z,92.70
2023-07-06T00:55:38.813Z,92.60
2023-07-06T00:58:30.748Z,92.50
2023-07-06T01:01:05.860Z,92.50
2023-07-06T01:03:46.493Z,92.40
2023-07-06T01:06:24.774Z,92.40
2023-07-06T01:08:55.864Z,92.40
2023-07-06T01:11:24.915Z,92.20
2023-07-06T01:13:56.422Z,92.10
2023-07-06T01:16:31.399Z,92.10
2023-07-06T01:19:15.830Z,92.00
2023-07-06T01:22:15.257Z,91.90
2023-07-06T01:25:09.129Z,91.80
2023-07-06T01:27:51.372Z,91.70
2023-07-06T01:30:53.575Z,91.50
2023-07-06T01:33:29.259Z,91.30
2023-07-06T01:36:30.915Z,91.40
2023-07-06T01:39:26.127Z,91.10
2023-07-06T01:42:10.765Z,91.00
2023-07-06T01:44:43.931Z,90.90
2023-07-06T01:47:13.489Z,90.80
2023-07-06T01:49:42.895Z,90.70
2023-07-06T01:52:29.204Z,90.60
2023-07-06T01:55:16.163Z,90.50
2023-07-06T01:58:25.685Z,90.30
2023-07-06T02:01:05.743Z,89.50
2023-07-06T02:03:35.113Z,90.20
2023-07-06T02:06:04.176Z,90.10
2023-07-06T02:08:33.657Z,90.00
2023-07-06T02:11:03.730Z,89.60
2023-07-06T02:13:35.578Z,89.30
2023-07-06T02:16:08.124Z,88.40
2023-07-06T02:18:37.130Z,88.40
2023-07-06T02:21:06.959Z,88.30
2023-07-06T02:23:36.080Z,88.30
2023-07-06T02:26:05.903Z,88.00
2023-07-06T02:28:37.378Z,87.80
2023-07-06T02:31:07.584Z,88.20
2023-07-06T02:33:37.053Z,88.00
2023-07-06T02:36:06.733Z,87.20
2023-07-06T02:38:36.330Z,87.20
2023-07-06T02:41:08.635Z,86.90
2023-07-06T02:43:37.749Z,86.70
2023-07-06T02:46:07.208Z,86.00
2023-07-06T02:48:37.222Z,85.70
2023-07-06T02:51:06.236Z,85.90
2023-07-06T02:53:35.256Z,84.90
2023-07-06T02:56:05.603Z,84.50
2023-07-06T02:58:38.686Z,83.90
2023-07-06T03:01:07.745Z,82.50
2023-07-06T03:03:36.787Z,83.00
2023-07-06T03:06:05.904Z,83.40
2023-07-06T03:08:34.908Z,82.60
2023-07-06T03:11:03.901Z,82.50
2023-07-06T03:13:33.556Z,82.20
2023-07-06T03:16:02.949Z,82.10
2023-07-06T03:18:32.657Z,82.00
2023-07-06T03:21:03.047Z,82.10
2023-07-06T03:23:32.093Z,82.50
2023-07-06T03:26:01.065Z,82.00
2023-07-06T03:28:31.327Z,81.50
2023-07-06T03:31:01.415Z,80.90
2023-07-06T03:33:30.824Z,81.40
2023-07-06T03:36:01.191Z,81.20
2023-07-06T03:38:32.236Z,81.20
2023-07-06T03:41:06.045Z,80.80
2023-07-06T03:43:35.988Z,80.00
2023-07-06T03:46:06.139Z,80.30
2023-07-06T03:48:35.190Z,79.70
2023-07-06T03:51:07.434Z,80.40
2023-07-06T03:53:40.228Z,80.20
2023-07-06T03:56:12.559Z,80.30
2023-07-06T03:58:41.638Z,79.50
2023-07-06T04:01:10.916Z,79.10
2023-07-06T04:03:40.131Z,79.20
2023-07-06T04:06:09.223Z,79.30
2023-07-06T04:08:38.527Z,79.20
2023-07-06T04:11:07.604Z,78.60
2023-07-06T04:13:36.759Z,79.10
2023-07-06T04:16:06.427Z,79.20
2023-07-06T04:18:35.497Z,79.00
2023-07-06T04:21:04.586Z,79.10
2023-07-06T04:23:33.628Z,79.60
2023-07-06T04:26:07.576Z,78.10
2023-07-06T04:28:36.650Z,78.00
2023-07-06T04:31:07.939Z,78.10
2023-07-06T04:33:37.081Z,77.60
2023-07-06T04:36:06.567Z,78.10
2023-07-06T04:38:36.777Z,78.40
2023-07-06T04:41:07.105Z,78.00
2023-07-06T04:43:36.270Z,77.10
2023-07-06T04:46:06.133Z,76.20
2023-07-06T04:48:38.572Z,76.30
2023-07-06T04:51:07.563Z,76.70
2023-07-06T04:53:36.526Z,76.70
2023-07-06T04:56:05.778Z,77.00
2023-07-06T04:58:34.869Z,77.30
2023-07-06T05:01:09.452Z,76.90
2023-07-06T05:03:38.629Z,76.70
2023-07-06T05:06:12.021Z,76.80
2023-07-06T05:08:42.026Z,76.70
2023-07-06T05:11:10.994Z,71.00
2023-07-06T05:13:40.127Z,74.40
2023-07-06T05:16:09.196Z,75.60
2023-07-06T05:18:38.273Z,75.40
2023-07-06T05:21:07.362Z,74.90
2023-07-06T05:23:36.820Z,74.80
2023-07-06T05:26:06.436Z,73.90
2023-07-06T05:28:35.854Z,74.20
2023-07-06T05:31:06.358Z,74.60
2023-07-06T05:33:35.350Z,75.30
2023-07-06T05:36:04.779Z,75.00
2023-07-06T05:38:33.806Z,75.00
2023-07-06T05:41:06.158Z,75.00
2023-07-06T05:43:35.194Z,73.40
2023-07-06T05:46:04.286Z,72.40
2023-07-06T05:48:33.401Z,74.20
2023-07-06T05:51:02.426Z,74.30
2023-07-06T05:53:31.434Z,74.90
2023-07-06T05:56:01.046Z,74.70
2023-07-06T05:58:30.136Z,75.30
2023-07-06T06:00:59.477Z,75.10
2023-07-06T06:03:28.634Z,74.20
2023-07-06T06:05:58.367Z,73.50
2023-07-06T06:08:27.834Z,74.40
2023-07-06T06:10:57.817Z,74.00
2023-07-06T06:13:29.520Z,73.00
2023-07-06T06:15:59.444Z,73.00
2023-07-06T06:18:29.198Z,72.80
2023-07-06T06:21:00.803Z,72.80
2023-07-06T06:23:29.801Z,72.80
2023-07-06T06:25:59.149Z,72.70
2023-07-06T06:28:28.922Z,72.60
2023-07-06T06:30:57.853Z,72.00
2023-07-06T06:33:26.874Z,72.70
2023-07-06T06:35:58.670Z,73.20
2023-07-06T06:38:28.575Z,72.90
2023-07-06T06:40:59.598Z,72.50
2023-07-06T06:43:30.319Z,72.20
2023-07-06T06:45:59.704Z,72.40
2023-07-06T06:48:28.941Z,72.10
2023-07-06T06:51:01.507Z,72.10
2023-07-06T06:53:30.708Z,72.40
2023-07-06T06:56:00.118Z,72.10
2023-07-06T06:58:29.410Z,72.70
2023-07-06T07:01:02.878Z,72.90
2023-07-06T07:03:32.402Z,72.50
2023-07-06T07:06:15.864Z,73.40
2023-07-06T07:08:45.789Z,73.20
2023-07-06T07:11:23.821Z,69.40
2023-07-06T07:13:55.238Z,73.20
2023-07-06T07:16:26.034Z,72.10
2023-07-06T07:18:56.716Z,71.80
2023-07-06T07:21:26.033Z,72.80
2023-07-06T07:23:55.039Z,72.80
2023-07-06T07:26:26.295Z,72.50
2023-07-06T07:28:55.378Z,73.10
2023-07-06T07:31:25.148Z,71.90
2023-07-06T07:33:54.365Z,73.00
2023-07-06T07:36:24.376Z,72.80
2023-07-06T07:38:55.905Z,72.40
2023-07-06T07:41:25.282Z,72.20
2023-07-06T07:43:54.563Z,71.80
2023-07-06T07:46:25.011Z,71.80
2023-07-06T07:48:55.484Z,71.90
2023-07-06T07:51:29.157Z,71.00
2023-07-06T07:53:58.830Z,70.60
2023-07-06T07:56:29.728Z,71.30
2023-07-06T07:58:58.807Z,70.50
2023-07-06T08:01:30.973Z,70.60
2023-07-06T08:04:00.153Z,70.30
2023-07-06T08:06:29.218Z,70.90
2023-07-06T08:08:58.693Z,70.80
2023-07-06T08:11:28.060Z,70.20
2023-07-06T08:13:59.071Z,70.10
2023-07-06T08:16:28.547Z,70.40
2023-07-06T08:19:13.369Z,70.70
2023-07-06T08:22:04.632Z,69.50
2023-07-06T08:24:35.919Z,70.10
2023-07-06T08:27:05.528Z,70.60
2023-07-06T08:29:34.473Z,69.80
2023-07-06T08:32:06.721Z,70.10
2023-07-06T08:34:35.774Z,69.00
2023-07-06T08:37:04.836Z,69.60
2023-07-06T08:39:35.753Z,70.30
2023-07-06T08:42:05.070Z,70.60
2023-07-06T08:44:34.118Z,69.80
2023-07-06T08:47:03.250Z,70.30
2023-07-06T08:49:37.738Z,70.30
2023-07-06T08:52:08.397Z,69.80
2023-07-06T08:54:41.035Z,70.30
2023-07-06T08:57:19.890Z,69.90
2023-07-06T08:59:51.003Z,69.90
2023-07-06T09:02:30.562Z,70.50
2023-07-06T09:05:09.931Z,69.60
2023-07-06T09:07:42.240Z,71.20
2023-07-06T09:10:28.248Z,69.90
2023-07-06T09:13:24.890Z,68.70
2023-07-06T09:16:05.515Z,68.60
2023-07-06T09:18:34.574Z,70.00
2023-07-06T09:21:04.482Z,70.50
2023-07-06T09:23:34.764Z,69.80
2023-07-06T09:26:17.296Z,69.70
2023-07-06T09:28:49.595Z,68.70
2023-07-06T09:31:23.770Z,69.10
2023-07-06T09:33:55.511Z,69.50
2023-07-06T09:36:28.315Z,70.20
2023-07-06T09:39:06.303Z,68.70
2023-07-06T09:41:35.442Z,68.90
2023-07-06T09:44:08.141Z,68.40
2023-07-06T09:46:39.705Z,69.30
2023-07-06T09:49:37.777Z,69.20
2023-07-06T09:52:12.623Z,66.80
2023-07-06T09:55:16.548Z,68.50
2023-07-06T09:57:46.961Z,68.90
2023-07-06T10:00:19.870Z,69.40
2023-07-06T10:03:16.297Z,70.00
2023-07-06T10:05:55.710Z,68.10
2023-07-06T10:08:43.278Z,70.10
2023-07-06T10:11:17.323Z,69.90
2023-07-06T10:13:59.044Z,70.30
2023-07-06T10:16:45.044Z,69.80
2023-07-06T10:19:25.789Z,69.10
2023-07-06T10:22:21.223Z,70.30
2023-07-06T10:25:05.551Z,69.60
2023-07-06T10:27:40.753Z,70.60
2023-07-06T10:30:22.288Z,70.80
2023-07-06T10:32:55.992Z,70.80
2023-07-06T10:35:32.817Z,70.90
2023-07-06T10:38:02.206Z,71.10
2023-07-06T10:40:32.222Z,71.40
2023-07-06T10:43:23.782Z,71.30
2023-07-06T10:45:55.157Z,71.00
2023-07-06T10:48:25.057Z,71.70
2023-07-06T10:51:09.082Z,71.70
2023-07-06T10:53:45.673Z,71.70
2023-07-06T10:56:14.589Z,71.70
2023-07-06T10:59:03.484Z,71.90
2023-07-06T11:01:53.423Z,72.30
2023-07-06T11:04:46.484Z,71.80
2023-07-06T11:07:35.273Z,71.50
2023-07-06T11:10:22.430Z,72.20
2023-07-06T11:13:00.019Z,72.00
2023-07-06T11:16:00.536Z,72.40
2023-07-06T11:18:48.979Z,72.10
2023-07-06T11:21:40.971Z,72.60
2023-07-06T11:24:18.436Z,72.70
2023-07-06T11:26:59.179Z,73.00
2023-07-06T11:29:32.750Z,73.60
2023-07-06T11:32:30.814Z,74.00
2023-07-06T11:35:07.694Z,74.80
2023-07-06T11:38:14.947Z,74.70
2023-07-06T11:40:56.280Z,75.20
2023-07-06T11:43:37.745Z,75.30
2023-07-06T11:46:28.126Z,75.60
2023-07-06T11:49:33.739Z,76.40
2023-07-06T11:52:07.290Z,76.90
2023-07-06T11:54:50.764Z,76.70
2023-07-06T11:57:46.918Z,76.80
2023-07-06T12:00:28.813Z,77.30
2023-07-06T12:03:05.776Z,77.40
2023-07-06T12:05:41.391Z,77.40
2023-07-06T12:08:22.704Z,77.50
2023-07-06T12:10:59.313Z,78.00
2023-07-06T12:13:35.634Z,78.10
2023-07-06T12:16:27.830Z,78.30
2023-07-06T12:19:07.885Z,78.90
2023-07-06T12:22:03.125Z,79.00
2023-07-06T12:24:32.444Z,79.60
2023-07-06T12:27:04.807Z,79.10
2023-07-06T12:29:35.124Z,78.90
2023-07-06T12:32:10.102Z,79.20
2023-07-06T12:34:43.233Z,79.30
2023-07-06T12:37:15.749Z,79.30
2023-07-06T12:39:47.542Z,79.30
2023-07-06T12:42:19.416Z,79.30
2023-07-06T12:44:53.509Z,79.20
2023-07-06T12:47:24.325Z,79.30
2023-07-06T12:49:57.603Z,79.50
2023-07-06T12:52:26.852Z,79.50
2023-07-06T12:54:58.801Z,79.50
2023-07-06T12:57:35.243Z,79.60
2023-07-06T13:00:26.919Z,79.60
2023-07-06T13:02:59.394Z,80.20
2023-07-06T13:05:31.022Z,79.70
2023-07-06T13:08:00.251Z,79.70
2023-07-06T13:10:34.218Z,79.80
2023-07-06T13:13:03.967Z,79.70
2023-07-06T13:15:48.304Z,79.80
2023-07-06T13:18:20.034Z,80.30
2023-07-06T13:20:52.702Z,80.20
2023-07-06T13:23:22.625Z,80.20
2023-07-06T13:25:53.964Z,80.30
2023-07-06T13:28:23.337Z,80.50
2023-07-06T13:30:53.886Z,81.40
2023-07-06T13:33:23.042Z,80.90
2023-07-06T13:35:52.198Z,81.00
2023-07-06T13:38:21.273Z,81.20
2023-07-06T13:40:51.309Z,81.40
2023-07-06T13:43:25.694Z,81.50
2023-07-06T13:45:54.733Z,81.60
2023-07-06T13:48:25.319Z,81.80
2023-07-06T13:50:54.344Z,81.90
2023-07-06T13:53:23.376Z,81.90
2023-07-06T13:55:57.529Z,82.20
2023-07-06T13:58:28.379Z,82.10
2023-07-06T14:00:58.480Z,82.20
2023-07-06T14:03:34.592Z,82.30
2023-07-06T14:06:04.320Z,82.30
2023-07-06T14:08:34.781Z,82.40
2023-07-06T14:11:05.309Z,82.70
2023-07-06T14:13:35.269Z,83.40
2023-07-06T14:16:04.696Z,83.50
2023-07-06T14:18:34.252Z,82.70
2023-07-06T14:21:07.527Z,82.70
2023-07-06T14:23:37.403Z,82.70
2023-07-06T14:26:06.620Z,82.90
2023-07-06T14:28:35.847Z,82.90
2023-07-06T14:31:07.938Z,83.00
2023-07-06T14:33:37.214Z,83.10
2023-07-06T14:36:06.398Z,83.00
2023-07-06T14:38:35.400Z,83.00
2023-07-06T14:41:04.751Z,83.40
2023-07-06T14:43:34.144Z,83.60
2023-07-06T14:46:04.059Z,83.70
2023-07-06T14:48:33.144Z,83.80
2023-07-06T14:51:12.079Z,83.90
2023-07-06T14:53:41.351Z,84.20
2023-07-06T14:56:10.752Z,84.00
2023-07-06T14:58:39.779Z,84.10
2023-07-06T15:01:08.928Z,84.10
2023-07-06T15:03:37.950Z,84.20
2023-07-06T15:06:09.361Z,84.20
2023-07-06T15:08:38.348Z,84.30
2023-07-06T15:11:07.318Z,84.50
2023-07-06T15:13:36.461Z,84.50
2023-07-06T15:16:05.699Z,84.60
2023-07-06T15:18:34.829Z,84.80
2023-07-06T15:21:16.285Z,84.90
2023-07-06T15:23:45.544Z,85.40
2023-07-06T15:26:14.661Z,85.10
2023-07-06T15:28:43.781Z,85.30
2023-07-06T15:31:13.040Z,85.30
2023-07-06T15:33:42.070Z,85.30
2023-07-06T15:36:11.045Z,85.60
2023-07-06T15:38:40.072Z,85.50
2023-07-06T15:41:09.303Z,85.70
2023-07-06T15:43:38.288Z,86.00
2023-07-06T15:46:07.589Z,86.20
2023-07-06T15:48:36.735Z,86.30
2023-07-06T15:51:05.960Z,86.60
2023-07-06T15:53:35.045Z,86.80
2023-07-06T15:56:06.625Z,86.90
2023-07-06T15:58:38.963Z,87.00
2023-07-06T16:01:09.088Z,87.30
2023-07-06T16:03:38.647Z,87.40
2023-07-06T16:06:07.671Z,87.40
2023-07-06T16:08:36.764Z,87.70
2023-07-06T16:11:07.019Z,87.90
2023-07-06T16:13:36.127Z,88.10
2023-07-06T16:16:05.489Z,88.20
2023-07-06T16:18:34.474Z,88.30
2023-07-06T16:21:04.012Z,88.60
2023-07-06T16:23:33.494Z,88.50
2023-07-06T16:26:11.193Z,88.70
2023-07-06T16:28:42.031Z,88.80
2023-07-06T16:31:12.000Z,88.80
2023-07-06T16:33:43.250Z,88.90
2023-07-06T16:36:13.755Z,89.20
2023-07-06T16:38:42.925Z,89.10
2023-07-06T16:41:13.682Z,89.20
2023-07-06T16:43:42.798Z,89.40
2023-07-06T16:46:12.212Z,89.40
2023-07-06T16:48:41.246Z,89.50
2023-07-06T16:51:10.788Z,89.60
2023-07-06T16:53:41.917Z,89.60
2023-07-06T16:56:10.989Z,89.60
2023-07-06T16:58:41.050Z,90.00
2023-07-06T17:01:12.798Z,90.00
2023-07-06T17:03:42.081Z,90.10
2023-07-06T17:06:12.804Z,90.10
2023-07-06T17:08:41.887Z,90.10
2023-07-06T17:11:13.784Z,90.20
2023-07-06T17:13:42.921Z,90.10
2023-07-06T17:16:12.102Z,90.20
2023-07-06T17:18:41.083Z,90.20
2023-07-06T17:21:12.382Z,90.20
2023-07-06T17:23:41.320Z,90.20
2023-07-06T17:26:10.420Z,90.20
2023-07-06T17:28:39.457Z,90.30
2023-07-06T17:31:14.427Z,90.30
2023-07-06T17:33:43.539Z,90.40
2023-07-06T17:36:12.990Z,90.40
2023-07-06T17:38:42.194Z,90.50
2023-07-06T17:41:13.739Z,90.50
2023-07-06T17:43:43.075Z,90.60
2023-07-06T17:46:12.173Z,90.60
2023-07-06T17:48:41.239Z,90.60
2023-07-06T17:51:12.232Z,90.70
2023-07-06T17:53:41.202Z,90.70
2023-07-06T17:56:10.345Z,90.80
2023-07-06T17:58:39.355Z,90.80
2023-07-06T18:01:09.510Z,90.90
2023-07-06T18:03:38.599Z,91.20
2023-07-06T18:06:08.062Z,91.00
2023-07-06T18:08:37.142Z,91.00
2023-07-06T18:11:06.820Z,91.00
2023-07-06T18:13:38.372Z,91.00
2023-07-06T18:16:07.768Z,91.00
2023-07-06T18:18:36.733Z,91.00
2023-07-06T18:21:07.134Z,91.00
2023-07-06T18:23:37.267Z,91.00
2023-07-06T18:26:06.457Z,91.40
2023-07-06T18:28:35.920Z,91.10
2023-07-06T18:31:05.294Z,91.10
2023-07-06T18:33:34.248Z,91.20
2023-07-06T18:36:05.481Z,91.20
2023-07-06T18:38:34.564Z,91.20
2023-07-06T18:41:05.011Z,91.20
2023-07-06T18:43:34.194Z,91.20
2023-07-06T18:46:03.297Z,91.30
2023-07-06T18:48:33.969Z,91.30
2023-07-06T18:51:03.051Z,91.30
2023-07-06T18:53:44.451Z,91.30
2023-07-06T18:56:14.045Z,91.30
2023-07-06T18:58:43.309Z,91.30
2023-07-06T19:01:13.174Z,91.40
2023-07-06T19:03:42.997Z,91.40
2023-07-06T19:06:17.884Z,91.40
2023-07-06T19:08:49.348Z,91.40
2023-07-06T19:11:18.904Z,91.40
2023-07-06T19:13:47.979Z,91.40
2023-07-06T19:16:18.157Z,91.40
2023-07-06T19:18:47.468Z,91.40
2023-07-06T19:21:16.465Z,91.50
2023-07-06T19:23:45.853Z,91.50
2023-07-06T19:26:15.897Z,91.50
2023-07-06T19:28:45.200Z,91.60
2023-07-06T19:31:14.173Z,91.60
2023-07-06T19:33:43.238Z,91.60
2023-07-06T19:36:13.086Z,91.60
2023-07-06T19:38:42.359Z,91.70
2023-07-06T19:41:11.802Z,91.70
2023-07-06T19:43:40.900Z,91.80
2023-07-06T19:48:43.558Z,91.80
2023-07-06T19:51:12.541Z,91.90
2023-07-06T19:53:41.831Z,91.90
2023-07-06T19:56:10.831Z,92.00
2023-07-06T19:58:39.918Z,92.00
2023-07-06T20:01:11.046Z,92.00
2023-07-06T20:03:40.065Z,92.00
2023-07-06T20:06:09.285Z,92.10
2023-07-06T20:08:38.397Z,92.10
2023-07-06T20:11:08.062Z,92.20
2023-07-06T20:13:38.579Z,92.20
2023-07-06T20:16:08.935Z,92.20
2023-07-06T20:18:38.046Z,92.30
2023-07-06T20:21:07.066Z,92.40
2023-07-06T20:23:36.032Z,92.40
2023-07-06T20:26:05.054Z,92.40
2023-07-06T20:28:34.088Z,92.50
2023-07-06T20:31:05.276Z,92.50
2023-07-06T20:33:34.874Z,92.40
2023-07-06T20:36:08.502Z,92.50
2023-07-06T20:38:38.235Z,92.50
2023-07-06T20:41:07.506Z,92.60
2023-07-06T20:43:36.705Z,92.60
2023-07-06T20:46:06.265Z,92.60
2023-07-06T20:48:35.341Z,93.00
2023-07-06T20:51:04.611Z,92.60
2023-07-06T20:53:33.589Z,92.70
2023-07-06T20:56:02.621Z,92.70
2023-07-06T20:58:31.633Z,92.70
2023-07-06T21:01:00.947Z,92.70
2023-07-06T21:03:32.660Z,92.70
2023-07-06T21:06:01.827Z,92.70
2023-07-06T21:08:31.589Z,92.80
2023-07-06T21:11:01.023Z,92.80
2023-07-06T21:13:31.877Z,92.90
2023-07-06T21:16:07.913Z,92.90
2023-07-06T21:18:36.987Z,93.00
2023-07-06T21:21:06.105Z,93.10
2023-07-06T21:23:35.449Z,93.00
2023-07-06T21:26:04.466Z,93.00
2023-07-06T21:28:33.471Z,93.00
2023-07-06T21:31:02.442Z,93.00
2023-07-06T21:33:31.460Z,93.00
2023-07-06T21:36:04.109Z,93.00
2023-07-06T21:38:33.133Z,93.00
2023-07-06T21:41:02.166Z,93.00
2023-07-06T21:43:31.635Z,93.10
2023-07-06T21:46:00.679Z,93.10
2023-07-06T21:48:29.733Z,93.10
2023-07-06T21:50:59.368Z,93.20
2023-07-06T21:53:29.669Z,93.20
2023-07-06T21:55:59.942Z,93.10
2023-07-06T21:58:30.021Z,93.20
2023-07-06T22:01:00.507Z,93.20
2023-07-06T22:03:29.787Z,93.40
2023-07-06T22:06:07.155Z,93.40
2023-07-06T22:08:36.918Z,93.40
2023-07-06T22:11:06.916Z,93.40
2023-07-06T22:13:36.536Z,93.40
2023-07-06T22:16:06.300Z,93.50
2023-07-06T22:18:36.086Z,93.50
2023-07-06T22:21:06.008Z,93.60
2023-07-06T22:23:36.856Z,93.40
2023-07-06T22:26:07.172Z,93.40
2023-07-06T22:28:36.260Z,93.40
2023-07-06T22:31:08.018Z,93.30
2023-07-06T22:33:38.762Z,93.30
2023-07-06T22:36:12.249Z,93.30
2023-07-06T22:38:43.113Z,93.30
2023-07-06T22:41:12.273Z,93.40
2023-07-06T22:43:41.593Z,93.30
2023-07-06T22:46:10.773Z,93.40
2023-07-06T22:48:41.851Z,93.40
2023-07-06T22:51:11.314Z,93.40
2023-07-06T22:53:40.497Z,93.40
2023-07-06T22:56:09.479Z,93.40
2023-07-06T22:58:38.450Z,93.50
2023-07-06T23:01:20.609Z,93.60
2023-07-06T23:03:50.116Z,93.70
2023-07-06T23:06:19.477Z,93.70
2023-07-06T23:08:48.514Z,93.70
2023-07-06T23:11:17.547Z,93.70
2023-07-06T23:13:46.710Z,93.70
2023-07-06T23:16:15.726Z,93.80
2023-07-06T23:18:44.718Z,93.80
2023-07-06T23:21:13.719Z,93.80
2023-07-06T23:23:44.966Z,93.80
2023-07-06T23:26:15.414Z,93.70
2023-07-06T23:28:44.826Z,93.80
2023-07-06T23:31:15.945Z,93.80
2023-07-06T23:33:45.027Z,93.80
2023-07-06T23:36:17.637Z,93.80
2023-07-06T23:38:47.899Z,93.80
2023-07-06T23:41:16.823Z,93.90
2023-07-06T23:43:45.928Z,94.00
2023-07-06T23:46:14.957Z,93.90
2023-07-06T23:48:43.933Z,94.10
2023-07-06T23:51:12.981Z,94.00
2023-07-06T23:53:42.251Z,94.10
2023-07-06T23:56:11.712Z,93.90
2023-07-06T23:58:40.888Z,93.90
